This is the latest recevied weather packets stored in our database for station/object SV4JYD-14. If no packets are shown the sender has not sent any weather packets the latest 10 day(s).
| Time | Temp. | Humidity | Pressure | Rain* | Wind** | Luminosity | Snow |
|---|---|---|---|---|---|---|---|
| 1778022114 | 12.22° C | 71% | 1016 hPa | 0 mm | - | - | - |
| 1778021214 | 12.22° C | 71% | 1016 hPa | 0 mm | - | - | - |
| 1778020326 | 12.78° C | 71% | 1016 hPa | 0 mm | - | - | - |
| 1778019414 | 12.78° C | 71% | 1017 hPa | 0 mm | - | - | - |
| 1778018513 | 12.78° C | 71% | 1016 hPa | 0 mm | - | - | - |
| 1778017613 | 13.33° C | 71% | 1016 hPa | 0 mm | - | - | - |
| 1778016713 | 13.33° C | 70% | 1016 hPa | 0 mm | - | - | - |
| 1778015813 | 13.89° C | 71% | 1017 hPa | 0 mm | - | - | - |
| 1778014912 | 13.89° C | 72% | 1016 hPa | 0 mm | - | - | - |
| 1778014012 | 13.89° C | 72% | 1016 hPa | 0 mm | - | - | - |
| 1778013112 | 13.89° C | 70% | 1017 hPa | 0 mm | - | - | - |
| 1778012211 | 14.44° C | 69% | 1017 hPa | 0 mm | - | - | - |
| 1778011311 | 14.44° C | 68% | 1016 hPa | 0 mm | - | - | - |
| 1778010411 | 15° C | 66% | 1016 hPa | 0 mm | - | - | - |
| 1778009511 | 15° C | 64% | 1016 hPa | 0 mm | - | - | - |
| 1778008611 | 15.56° C | 61% | 1017 hPa | 0 mm | - | - | - |
| 1778007710 | 16.11° C | 59% | 1016 hPa | 0 mm | - | - | - |
| 1778006810 | 16.67° C | 58% | 1016 hPa | 0 mm | - | - | - |
| 1778005910 | 16.67° C | 55% | 1016 hPa | 0 mm | - | - | - |
| 1778005010 | 16.67° C | 53% | 1016 hPa | 0 mm | - | - | - |
| 1778004109 | 16.11° C | 54% | 1016 hPa | 0 mm | - | - | - |
| 1778003209 | 16.67° C | 53% | 1016 hPa | 0 mm | - | - | - |
| 1778002309 | 17.22° C | 52% | 1016 hPa | 0 mm | - | - | - |
| 1778001409 | 18.33° C | 48% | 1016 hPa | 0 mm | - | - | - |
| 1778000508 | 19.44° C | 44% | 1015 hPa | 0 mm | - | - | - |
* Rain latest hour (hover to see other rain measurements)
** Current wind speed in m/s (hover to see current wind gust speed)